createdAt,value
2018-04-14T00:00:06.946Z,7.80
2018-04-14T00:02:34.509Z,7.80
2018-04-14T00:05:02.053Z,7.90
2018-04-14T00:07:29.620Z,8.00
2018-04-14T00:09:57.165Z,7.90
2018-04-14T00:12:24.756Z,7.80
2018-04-14T00:14:53.069Z,7.70
2018-04-14T00:17:20.633Z,7.60
2018-04-14T00:19:48.175Z,7.60
2018-04-14T00:22:15.746Z,7.70
2018-04-14T00:24:43.294Z,7.60
2018-04-14T00:27:10.858Z,7.60
2018-04-14T00:29:38.397Z,7.60
2018-04-14T00:32:05.967Z,7.60
2018-04-14T00:34:33.515Z,7.60
2018-04-14T00:37:01.076Z,7.50
2018-04-14T00:39:28.613Z,7.50
2018-04-14T00:41:56.230Z,7.60
2018-04-14T00:44:23.775Z,7.60
2018-04-14T00:46:51.345Z,7.50
2018-04-14T00:49:18.888Z,7.50
2018-04-14T00:51:46.454Z,7.50
2018-04-14T00:54:13.996Z,7.40
2018-04-14T00:56:41.581Z,7.30
2018-04-14T00:59:09.127Z,7.30
2018-04-14T01:01:36.669Z,7.30
2018-04-14T01:04:04.241Z,7.30
2018-04-14T01:06:31.781Z,7.30
2018-04-14T01:08:59.346Z,7.30
2018-04-14T01:11:26.894Z,7.20
2018-04-14T01:13:54.465Z,7.30
2018-04-14T01:16:22.008Z,7.30
2018-04-14T01:18:50.343Z,7.20
2018-04-14T01:21:17.886Z,7.20
2018-04-14T01:23:45.452Z,7.20
2018-04-14T01:26:13.004Z,7.30
2018-04-14T01:28:41.337Z,7.20
2018-04-14T01:31:08.878Z,7.10
2018-04-14T01:33:37.207Z,7.10
2018-04-14T01:36:04.761Z,7.10
2018-04-14T01:38:32.325Z,7.10
2018-04-14T01:40:59.865Z,7.10
2018-04-14T01:43:27.429Z,7.00
2018-04-14T01:45:54.969Z,6.90
2018-04-14T01:48:22.533Z,7.00
2018-04-14T01:50:50.073Z,7.00
2018-04-14T01:53:17.641Z,6.80
2018-04-14T01:55:45.953Z,7.00
2018-04-14T01:58:13.526Z,7.00
2018-04-14T02:00:41.069Z,7.00
2018-04-14T02:03:08.640Z,6.90
2018-04-14T02:05:36.182Z,6.90
2018-04-14T02:08:03.740Z,6.90
2018-04-14T02:10:31.290Z,6.80
2018-04-14T02:12:58.904Z,7.00
2018-04-14T02:15:26.478Z,6.90
2018-04-14T02:17:54.786Z,6.80
2018-04-14T02:20:22.357Z,6.80
2018-04-14T02:22:49.906Z,6.70
2018-04-14T02:25:17.477Z,6.70
2018-04-14T02:27:45.030Z,6.60
2018-04-14T02:30:12.605Z,6.60
2018-04-14T02:32:40.157Z,6.60
2018-04-14T02:35:08.488Z,6.70
2018-04-14T02:37:36.039Z,6.70
2018-04-14T02:40:04.368Z,6.60
2018-04-14T02:42:31.908Z,6.60
2018-04-14T02:44:59.468Z,6.50
2018-04-14T02:47:27.012Z,6.70
2018-04-14T02:49:54.582Z,6.50
2018-04-14T02:52:22.117Z,6.50
2018-04-14T02:54:50.459Z,6.40
2018-04-14T02:57:17.996Z,6.40
2018-04-14T02:59:45.566Z,6.50
2018-04-14T03:02:13.118Z,6.50
2018-04-14T03:04:40.688Z,6.40
2018-04-14T03:07:08.237Z,6.40
2018-04-14T03:09:35.810Z,6.40
2018-04-14T03:12:03.403Z,6.40
2018-04-14T03:14:30.979Z,6.30
2018-04-14T03:16:58.580Z,6.30
2018-04-14T03:19:26.149Z,6.30
2018-04-14T03:21:53.693Z,6.30
2018-04-14T03:24:21.256Z,6.30
2018-04-14T03:26:48.797Z,6.40
2018-04-14T03:29:16.365Z,6.30
2018-04-14T03:31:43.909Z,6.40
2018-04-14T03:34:11.449Z,6.30
2018-04-14T03:36:39.022Z,6.20
2018-04-14T03:39:06.646Z,6.30
2018-04-14T03:41:34.986Z,6.30
2018-04-14T03:44:02.570Z,6.30
2018-04-14T03:46:30.145Z,6.30
2018-04-14T03:48:58.456Z,6.10
2018-04-14T03:51:26.021Z,6.10
2018-04-14T03:53:53.563Z,6.10
2018-04-14T03:56:21.130Z,6.10
2018-04-14T03:58:48.756Z,6.10
2018-04-14T04:01:17.081Z,6.00
2018-04-14T04:03:44.624Z,6.00
2018-04-14T04:06:12.197Z,6.00
2018-04-14T04:08:39.738Z,6.00
2018-04-14T04:11:07.304Z,6.00
2018-04-14T04:13:34.872Z,6.00
2018-04-14T04:16:02.440Z,6.00
2018-04-14T04:18:41.804Z,6.00
2018-04-14T04:21:21.805Z,6.00
2018-04-14T04:24:01.047Z,6.00
2018-04-14T04:26:28.614Z,6.00
2018-04-14T04:28:56.161Z,6.00
2018-04-14T04:31:23.727Z,5.90
2018-04-14T04:33:51.273Z,5.90
2018-04-14T04:36:18.836Z,5.90
2018-04-14T04:38:46.384Z,5.90
2018-04-14T04:41:13.949Z,6.00
2018-04-14T04:43:41.509Z,5.90
2018-04-14T04:46:09.146Z,5.90
2018-04-14T04:48:37.498Z,5.90
2018-04-14T04:51:05.149Z,5.90
2018-04-14T04:53:32.685Z,5.90
2018-04-14T04:56:00.232Z,5.90
2018-04-14T04:58:27.797Z,5.90
2018-04-14T05:00:55.389Z,5.90
2018-04-14T05:03:22.960Z,5.90
2018-04-14T05:05:51.274Z,6.00
2018-04-14T05:08:18.847Z,6.00
2018-04-14T05:10:46.398Z,6.10
2018-04-14T05:13:13.974Z,6.10
2018-04-14T05:15:41.518Z,6.10
2018-04-14T05:18:09.082Z,6.10
2018-04-14T05:20:36.678Z,6.10
2018-04-14T05:23:04.252Z,6.10
2018-04-14T05:25:32.564Z,6.10
2018-04-14T05:28:00.145Z,6.10
2018-04-14T05:30:27.688Z,6.20
2018-04-14T05:32:55.261Z,6.20
2018-04-14T05:35:22.809Z,6.20
2018-04-14T05:37:50.388Z,6.20
2018-04-14T05:40:17.933Z,6.30
2018-04-14T05:42:45.555Z,6.30
2018-04-14T05:45:13.853Z,6.30
2018-04-14T05:47:41.424Z,6.30
2018-04-14T05:50:08.985Z,6.50
2018-04-14T05:52:36.561Z,6.80
2018-04-14T05:55:04.125Z,7.40
2018-04-14T05:57:31.693Z,7.70
2018-04-14T05:59:59.236Z,8.40
2018-04-14T06:02:26.805Z,9.00
2018-04-14T06:04:54.346Z,9.60
2018-04-14T06:07:21.901Z,10.20
2018-04-14T06:09:49.472Z,10.90
2018-04-14T06:12:18.529Z,12.00
2018-04-14T06:14:46.105Z,12.00
2018-04-14T06:17:13.658Z,12.60
2018-04-14T06:19:41.229Z,12.90
2018-04-14T06:22:08.809Z,13.30
2018-04-14T06:24:36.361Z,13.70
2018-04-14T06:27:03.903Z,14.20
2018-04-14T06:29:31.481Z,14.70
2018-04-14T06:31:59.049Z,15.10
2018-04-14T06:34:26.627Z,15.50
2018-04-14T06:36:54.181Z,16.00
2018-04-14T06:39:21.753Z,16.50
2018-04-14T06:41:49.298Z,17.00
2018-04-14T06:44:17.633Z,18.00
2018-04-14T06:46:45.185Z,18.00
2018-04-14T06:49:12.752Z,18.40
2018-04-14T06:51:40.302Z,18.80
2018-04-14T06:54:07.869Z,19.20
2018-04-14T06:56:35.416Z,19.60
2018-04-14T06:59:02.994Z,20.10
2018-04-14T07:01:30.546Z,20.50
2018-04-14T07:03:58.125Z,20.90
2018-04-14T07:06:25.689Z,21.20
2018-04-14T07:08:54.028Z,21.90
2018-04-14T07:11:21.577Z,21.90
2018-04-14T07:13:49.174Z,22.30
2018-04-14T07:16:16.791Z,22.70
2018-04-14T07:18:44.335Z,23.10
2018-04-14T07:21:11.908Z,23.50
2018-04-14T07:23:39.463Z,23.80
2018-04-14T07:26:07.036Z,24.30
2018-04-14T07:28:34.588Z,24.60
2018-04-14T07:31:02.155Z,24.90
2018-04-14T07:33:29.878Z,25.30
2018-04-14T07:35:57.512Z,25.70
2018-04-14T07:38:25.062Z,26.00
2018-04-14T07:40:52.629Z,26.30
2018-04-14T07:43:20.175Z,26.60
2018-04-14T07:45:47.744Z,27.10
2018-04-14T07:48:15.297Z,27.40
2018-04-14T07:50:42.902Z,27.60
2018-04-14T07:53:10.455Z,27.80
2018-04-14T07:55:38.038Z,28.10
2018-04-14T07:58:05.613Z,28.40
2018-04-14T08:00:33.184Z,28.80
2018-04-14T08:03:00.750Z,29.20
2018-04-14T08:05:28.320Z,29.50
2018-04-14T08:07:55.870Z,29.70
2018-04-14T08:10:23.442Z,29.80
2018-04-14T08:12:50.990Z,30.00
2018-04-14T08:15:18.558Z,30.20
2018-04-14T08:17:46.102Z,30.20
2018-04-14T08:20:13.675Z,30.10
2018-04-14T08:22:41.221Z,30.40
2018-04-14T08:25:08.819Z,30.50
2018-04-14T08:27:36.368Z,30.80
2018-04-14T08:30:04.736Z,31.70
2018-04-14T08:32:32.273Z,31.60
2018-04-14T08:34:59.849Z,31.90
2018-04-14T08:37:27.474Z,32.10
2018-04-14T08:39:55.732Z,32.20
2018-04-14T08:42:23.313Z,32.20
2018-04-14T08:44:50.865Z,32.50
2018-04-14T08:47:18.474Z,32.90
2018-04-14T08:49:46.884Z,32.90
2018-04-14T08:52:14.457Z,32.80
2018-04-14T08:54:42.774Z,33.30
2018-04-14T08:57:11.117Z,33.30
2018-04-14T08:59:38.669Z,33.30
2018-04-14T09:02:06.232Z,33.70
2018-04-14T09:04:33.776Z,34.00
2018-04-14T09:07:01.345Z,34.20
2018-04-14T09:09:29.670Z,33.90
2018-04-14T09:11:57.248Z,33.80
2018-04-14T09:14:24.797Z,33.90
2018-04-14T09:16:53.132Z,33.30
2018-04-14T09:19:20.678Z,33.30
2018-04-14T09:21:48.254Z,33.50
2018-04-14T09:24:15.810Z,33.30
2018-04-14T09:26:43.388Z,33.10
2018-04-14T09:29:10.937Z,32.90
2018-04-14T09:31:38.510Z,32.90
2018-04-14T09:34:06.090Z,33.30
2018-04-14T09:36:33.657Z,33.70
2018-04-14T09:39:01.210Z,33.90
2018-04-14T09:41:28.787Z,34.20
2018-04-14T09:43:57.126Z,34.20
2018-04-14T09:46:25.466Z,34.50
2018-04-14T09:48:53.017Z,34.50
2018-04-14T09:51:20.589Z,34.50
2018-04-14T09:53:48.137Z,34.40
2018-04-14T09:56:15.694Z,34.60
2018-04-14T09:58:43.265Z,34.10
2018-04-14T10:01:16.556Z,34.20
2018-04-14T10:03:49.627Z,34.30
2018-04-14T10:06:17.177Z,34.20
2018-04-14T10:08:44.745Z,33.60
2018-04-14T10:11:12.289Z,34.00
2018-04-14T10:13:39.857Z,34.50
2018-04-14T10:16:07.398Z,34.10
2018-04-14T10:18:34.971Z,34.30
2018-04-14T10:21:02.517Z,34.40
2018-04-14T10:23:30.080Z,34.70
2018-04-14T10:25:57.647Z,35.00
2018-04-14T10:28:25.212Z,34.90
2018-04-14T10:30:52.752Z,34.90
2018-04-14T10:33:20.314Z,35.00
2018-04-14T10:35:47.861Z,35.00
2018-04-14T10:38:15.428Z,34.90
2018-04-14T10:40:42.981Z,34.20
2018-04-14T10:43:10.555Z,34.20
2018-04-14T10:45:38.110Z,33.70
2018-04-14T10:48:05.686Z,33.30
2018-04-14T10:50:33.229Z,33.10
2018-04-14T10:53:00.801Z,33.00
2018-04-14T10:55:28.346Z,32.20
2018-04-14T10:57:55.921Z,31.80
2018-04-14T11:00:23.465Z,31.00
2018-04-14T11:02:51.041Z,31.00
2018-04-14T11:05:18.587Z,30.60
2018-04-14T11:07:46.164Z,30.30
2018-04-14T11:10:13.714Z,30.10
2018-04-14T11:12:41.289Z,29.80
2018-04-14T11:15:08.840Z,29.50
2018-04-14T11:17:36.409Z,29.10
2018-04-14T11:20:03.986Z,28.90
2018-04-14T11:22:31.529Z,28.90
2018-04-14T11:24:59.104Z,28.80
2018-04-14T11:27:26.673Z,28.50
2018-04-14T11:29:54.244Z,28.30
2018-04-14T11:32:22.561Z,27.90
2018-04-14T11:34:50.138Z,27.90
2018-04-14T11:37:17.689Z,27.70
2018-04-14T11:39:46.061Z,27.60
2018-04-14T11:42:13.612Z,27.40
2018-04-14T11:44:41.178Z,27.30
2018-04-14T11:47:08.725Z,27.30
2018-04-14T11:49:36.292Z,27.40
2018-04-14T11:52:03.834Z,27.00
2018-04-14T11:54:31.404Z,26.90
2018-04-14T11:56:58.946Z,26.90
2018-04-14T11:59:26.527Z,26.80
2018-04-14T12:01:54.078Z,26.80
2018-04-14T12:04:21.654Z,26.50
2018-04-14T12:06:49.207Z,26.10
2018-04-14T12:09:16.772Z,25.90
2018-04-14T12:11:44.321Z,25.80
2018-04-14T12:14:12.175Z,25.70
2018-04-14T12:16:39.717Z,25.70
2018-04-14T12:19:07.292Z,25.70
2018-04-14T12:21:34.846Z,25.60
2018-04-14T12:24:02.421Z,25.40
2018-04-14T12:26:29.969Z,25.40
2018-04-14T12:28:57.543Z,25.30
2018-04-14T12:31:25.084Z,25.20
2018-04-14T12:33:52.631Z,25.10
2018-04-14T12:36:20.262Z,24.90
2018-04-14T12:38:47.776Z,25.00
2018-04-14T12:41:15.345Z,25.00
2018-04-14T12:43:42.894Z,25.10
2018-04-14T12:46:10.565Z,25.10
2018-04-14T12:48:38.109Z,25.20
2018-04-14T12:51:05.677Z,25.10
2018-04-14T12:53:33.228Z,25.10
2018-04-14T12:56:00.797Z,25.10
2018-04-14T12:58:28.340Z,24.90
2018-04-14T13:00:55.909Z,24.90
2018-04-14T13:03:23.461Z,24.80
2018-04-14T13:05:51.045Z,24.60
2018-04-14T13:08:18.605Z,24.80
2018-04-14T13:10:46.177Z,25.00
2018-04-14T13:13:13.751Z,24.90
2018-04-14T13:15:41.321Z,24.80
2018-04-14T13:18:08.868Z,24.80
2018-04-14T13:20:37.205Z,24.70
2018-04-14T13:23:04.758Z,24.70
2018-04-14T13:25:33.249Z,24.80
2018-04-14T13:28:01.084Z,24.70
2018-04-14T13:30:28.683Z,24.80
2018-04-14T13:32:56.224Z,24.90
2018-04-14T13:35:23.773Z,24.80
2018-04-14T13:37:51.337Z,24.70
2018-04-14T13:40:18.899Z,24.60
2018-04-14T13:42:46.917Z,24.50
2018-04-14T13:45:14.468Z,24.40
2018-04-14T13:47:42.798Z,24.30
2018-04-14T13:50:10.355Z,24.30
2018-04-14T13:52:37.921Z,24.20
2018-04-14T13:55:06.228Z,24.20
2018-04-14T13:57:33.797Z,24.20
2018-04-14T14:00:01.345Z,24.10
2018-04-14T14:02:28.921Z,24.10
2018-04-14T14:04:57.237Z,23.90
2018-04-14T14:07:25.696Z,23.90
2018-04-14T14:09:55.633Z,23.70
2018-04-14T14:12:23.873Z,23.70
2018-04-14T14:14:51.473Z,23.80
2018-04-14T14:17:19.046Z,23.80
2018-04-14T14:19:46.838Z,23.70
2018-04-14T14:22:15.177Z,23.60
2018-04-14T14:24:42.796Z,23.60
2018-04-14T14:27:10.372Z,23.50
2018-04-14T14:29:37.922Z,23.50
2018-04-14T14:32:05.490Z,23.50
2018-04-14T14:34:33.046Z,23.40
2018-04-14T14:37:00.617Z,23.40
2018-04-14T14:39:28.166Z,23.20
2018-04-14T14:41:55.739Z,23.30
2018-04-14T14:44:23.468Z,23.20
2018-04-14T14:46:51.013Z,23.30
2018-04-14T14:49:19.356Z,23.20
2018-04-14T14:51:46.897Z,23.20
2018-04-14T14:54:14.477Z,23.10
2018-04-14T14:56:42.058Z,23.00
2018-04-14T14:59:09.643Z,23.00
2018-04-14T15:01:37.194Z,23.00
2018-04-14T15:04:04.781Z,23.10
2018-04-14T15:06:32.335Z,22.90
2018-04-14T15:09:01.214Z,22.90
2018-04-14T15:11:28.814Z,23.00
2018-04-14T15:13:56.363Z,23.00
2018-04-14T15:16:23.919Z,22.90
2018-04-14T15:18:51.484Z,22.90
2018-04-14T15:21:19.965Z,23.00
2018-04-14T15:23:47.537Z,23.00
2018-04-14T15:26:16.237Z,22.70
2018-04-14T15:28:44.419Z,22.70
2018-04-14T15:31:11.960Z,22.70
2018-04-14T15:33:39.542Z,22.60
2018-04-14T15:36:07.861Z,22.60
2018-04-14T15:38:35.424Z,22.60
2018-04-14T15:41:02.970Z,22.50
2018-04-14T15:43:30.811Z,22.40
2018-04-14T15:45:59.126Z,22.30
2018-04-14T15:48:26.691Z,22.30
2018-04-14T15:50:54.233Z,22.40
2018-04-14T15:53:21.803Z,22.40
2018-04-14T15:55:49.354Z,22.30
2018-04-14T15:58:16.902Z,22.20
2018-04-14T16:00:45.490Z,22.10
2018-04-14T16:03:13.048Z,22.20
2018-04-14T16:05:40.632Z,22.10
2018-04-14T16:08:08.181Z,21.90
2018-04-14T16:10:35.760Z,21.90
2018-04-14T16:13:03.313Z,21.90
2018-04-14T16:15:31.470Z,22.00
2018-04-14T16:17:59.017Z,22.00
2018-04-14T16:20:26.590Z,21.90
2018-04-14T16:22:54.137Z,21.90
2018-04-14T16:25:21.704Z,21.80
2018-04-14T16:27:50.023Z,21.90
2018-04-14T16:30:17.598Z,21.80
2018-04-14T16:32:45.152Z,21.70
2018-04-14T16:35:13.485Z,21.70
2018-04-14T16:37:41.039Z,21.70
2018-04-14T16:40:08.621Z,21.70
2018-04-14T16:42:36.172Z,21.70
2018-04-14T16:45:03.757Z,21.70
2018-04-14T16:47:32.066Z,21.70
2018-04-14T16:49:59.638Z,21.60
2018-04-14T16:52:27.301Z,21.60
2018-04-14T16:54:54.873Z,21.70
2018-04-14T16:57:22.422Z,21.50
2018-04-14T16:59:49.993Z,21.50
2018-04-14T17:02:17.538Z,21.30
2018-04-14T17:04:45.101Z,21.40
2018-04-14T17:07:12.644Z,21.50
2018-04-14T17:09:40.238Z,21.50
2018-04-14T17:12:07.788Z,21.40
2018-04-14T17:14:35.341Z,21.40
2018-04-14T17:17:02.907Z,21.30
2018-04-14T17:19:30.465Z,21.20
2018-04-14T17:21:58.033Z,21.20
2018-04-14T17:24:25.581Z,21.10
2018-04-14T17:26:54.621Z,21.10
2018-04-14T17:29:24.795Z,21.00
2018-04-14T17:31:52.369Z,21.00
2018-04-14T17:34:19.934Z,20.80
2018-04-14T17:36:47.505Z,20.80
2018-04-14T17:39:15.137Z,20.80
2018-04-14T17:41:42.719Z,20.70
2018-04-14T17:44:10.259Z,20.60
2018-04-14T17:46:37.840Z,20.50
2018-04-14T17:49:05.393Z,20.50
2018-04-14T17:51:32.970Z,20.30
2018-04-14T17:54:01.297Z,20.10
2018-04-14T17:56:28.869Z,20.10
2018-04-14T17:58:56.603Z,20.20
2018-04-14T18:01:24.177Z,20.20
2018-04-14T18:03:51.722Z,20.00
2018-04-14T18:06:19.293Z,19.80
2018-04-14T18:08:46.841Z,19.70
2018-04-14T18:11:14.418Z,19.60
2018-04-14T18:13:41.968Z,19.50
2018-04-14T18:16:09.564Z,19.50
2018-04-14T18:18:37.233Z,19.40
2018-04-14T18:21:05.533Z,19.30
2018-04-14T18:23:33.083Z,19.10
2018-04-14T18:26:00.629Z,19.00
2018-04-14T18:28:28.202Z,18.90
2018-04-14T18:30:56.523Z,18.60
2018-04-14T18:33:24.091Z,18.60
2018-04-14T18:35:51.881Z,18.50
2018-04-14T18:38:19.505Z,18.40
2018-04-14T18:40:47.057Z,18.40
2018-04-14T18:43:14.619Z,18.20
2018-04-14T18:45:42.173Z,18.20
2018-04-14T18:48:09.746Z,18.00
2018-04-14T18:50:37.297Z,17.60
2018-04-14T18:53:04.869Z,17.60
2018-04-14T18:55:32.417Z,17.60
2018-04-14T18:57:59.982Z,17.40
2018-04-14T19:00:28.300Z,17.30
2018-04-14T19:02:56.642Z,17.20
2018-04-14T19:05:24.193Z,17.20
2018-04-14T19:07:51.780Z,17.20
2018-04-14T19:10:20.111Z,17.00
2018-04-14T19:12:47.685Z,17.00
2018-04-14T19:15:15.555Z,16.90
2018-04-14T19:17:43.215Z,16.80
2018-04-14T19:20:11.690Z,16.90
2018-04-14T19:22:39.328Z,16.70
2018-04-14T19:25:06.877Z,16.60
2018-04-14T19:27:34.448Z,16.50
2018-04-14T19:30:01.993Z,16.50
2018-04-14T19:32:29.628Z,16.50
2018-04-14T19:34:57.144Z,16.40
2018-04-14T19:37:24.864Z,16.40
2018-04-14T19:39:52.447Z,16.30
2018-04-14T19:42:19.999Z,16.30
2018-04-14T19:44:47.579Z,16.20
2018-04-14T19:47:15.128Z,16.30
2018-04-14T19:49:42.700Z,16.30
2018-04-14T19:52:10.257Z,16.30
2018-04-14T19:54:37.827Z,16.30
2018-04-14T19:57:05.381Z,16.30
2018-04-14T19:59:32.965Z,16.30
2018-04-14T20:02:00.514Z,16.30
2018-04-14T20:04:28.090Z,16.40
2018-04-14T20:06:56.400Z,16.50
2018-04-14T20:09:23.970Z,16.40
2018-04-14T20:11:51.517Z,16.60
2018-04-14T20:14:19.090Z,16.70
2018-04-14T20:16:46.643Z,16.80
2018-04-14T20:19:14.219Z,17.00
2018-04-14T20:21:41.769Z,17.00
2018-04-14T20:24:09.336Z,17.00
2018-04-14T20:26:36.879Z,17.00
2018-04-14T20:29:04.530Z,17.10
2018-04-14T20:31:32.081Z,17.20
2018-04-14T20:33:59.658Z,17.20
2018-04-14T20:36:27.212Z,17.20
2018-04-14T20:38:54.790Z,17.30
2018-04-14T20:41:22.333Z,17.40
2018-04-14T20:43:49.906Z,17.40
2018-04-14T20:46:17.453Z,17.40
2018-04-14T20:48:45.006Z,17.30
2018-04-14T20:51:12.577Z,17.30
2018-04-14T20:53:40.123Z,17.40
2018-04-14T20:56:07.701Z,17.30
2018-04-14T20:58:35.257Z,17.20
2018-04-14T21:01:02.824Z,17.20
2018-04-14T21:03:30.568Z,17.00
2018-04-14T21:05:58.137Z,17.00
2018-04-14T21:08:25.681Z,16.90
2018-04-14T21:10:53.257Z,16.80
2018-04-14T21:13:20.806Z,16.80
2018-04-14T21:15:48.376Z,16.70
2018-04-14T21:18:15.926Z,16.70
2018-04-14T21:20:43.494Z,16.50
2018-04-14T21:23:11.205Z,16.50
2018-04-14T21:25:39.548Z,16.40
2018-04-14T21:28:07.661Z,16.30
2018-04-14T21:30:35.234Z,16.30
2018-04-14T21:33:02.791Z,16.20
2018-04-14T21:35:30.362Z,16.10
2018-04-14T21:37:57.919Z,16.00
2018-04-14T21:40:25.491Z,15.90
2018-04-14T21:42:53.091Z,15.70
2018-04-14T21:45:20.664Z,15.70
2018-04-14T21:47:49.012Z,15.50
2018-04-14T21:50:16.589Z,15.50
2018-04-14T21:52:44.174Z,15.50
2018-04-14T21:55:11.751Z,15.50
2018-04-14T21:57:39.294Z,15.40
2018-04-14T22:00:06.868Z,15.40
2018-04-14T22:02:34.417Z,15.20
2018-04-14T22:05:01.986Z,15.10
2018-04-14T22:07:29.533Z,14.90
2018-04-14T22:09:57.081Z,14.90
2018-04-14T22:12:25.422Z,14.80
2018-04-14T22:14:52.969Z,14.80
2018-04-14T22:17:20.546Z,14.70
2018-04-14T22:19:48.097Z,14.70
2018-04-14T22:22:15.673Z,14.70
2018-04-14T22:24:43.217Z,14.70
2018-04-14T22:27:10.784Z,14.60
2018-04-14T22:29:38.329Z,14.50
2018-04-14T22:32:05.906Z,14.50
2018-04-14T22:34:33.464Z,14.40
2018-04-14T22:37:01.813Z,14.40
2018-04-14T22:39:29.367Z,14.40
2018-04-14T22:41:56.937Z,14.40
2018-04-14T22:44:25.266Z,14.30
2018-04-14T22:46:52.845Z,14.30
2018-04-14T22:49:20.394Z,14.30
2018-04-14T22:51:47.995Z,14.30
2018-04-14T22:54:16.290Z,14.40
2018-04-14T22:56:43.852Z,14.30
2018-04-14T22:59:12.166Z,14.30
2018-04-14T23:01:39.835Z,14.30
2018-04-14T23:04:07.387Z,14.30
2018-04-14T23:06:35.749Z,14.30
2018-04-14T23:09:03.307Z,14.20
2018-04-14T23:11:30.896Z,14.20
2018-04-14T23:13:58.441Z,14.30
2018-04-14T23:16:26.006Z,14.30
2018-04-14T23:18:54.241Z,14.10
2018-04-14T23:21:21.813Z,14.00
2018-04-14T23:23:49.360Z,14.10
2018-04-14T23:26:17.685Z,13.90
2018-04-14T23:28:45.248Z,13.90
2018-04-14T23:31:12.792Z,13.90
2018-04-14T23:33:40.366Z,13.90
2018-04-14T23:36:07.919Z,13.90
2018-04-14T23:38:35.495Z,13.80
2018-04-14T23:41:03.052Z,13.80
2018-04-14T23:43:30.638Z,13.60
2018-04-14T23:45:58.190Z,13.60
2018-04-14T23:48:25.753Z,13.70
2018-04-14T23:50:53.309Z,13.70
2018-04-14T23:53:20.898Z,13.30
2018-04-14T23:55:48.440Z,13.20
2018-04-14T23:58:16.769Z,13.10
